Time;durP1;ratioP1;P1;durP2;ratioP2;P2;SDS_P1;SDS_P2;PMS_P1;PMS_P2;Temp;Humidity;BMP_temperature;BMP_pressure;BME280_temperature;BME280_humidity;BME280_pressure;Samples;Min_cycle;Max_cycle;Signal;HPM_P1;HPM_P2
2024/02/09 00:01:18;;;;;;;42.63;24.33;;;;;;;9.68;52.82;93950.97;4244213;27;20065;-72
2024/02/09 00:03:21;;;;;;;47.00;26.60;;;;;;;9.53;52.82;93945.66;4242199;27;20638;-72
2024/02/09 00:05:24;;;;;;;46.55;27.65;;;;;;;9.50;53.47;93947.78;4239739;27;20558;-73
2024/02/09 00:07:26;;;;;;;46.88;25.45;;;;;;;9.42;53.63;93956.47;4240520;27;20073;-71
2024/02/09 00:09:28;;;;;;;44.47;25.40;;;;;;;9.42;53.84;93952.06;4221891;28;20200;-72
2024/02/09 00:11:33;;;;;;;44.95;23.90;;;;;;;9.48;53.95;93953.16;4241099;27;20054;-75
2024/02/09 00:13:35;;;;;;;53.80;24.35;;;;;;;9.44;53.89;93949.25;4240382;27;20499;-74
2024/02/09 00:15:37;;;;;;;49.13;25.23;;;;;;;9.42;53.53;93949.47;4225910;28;20484;-73
2024/02/09 00:17:38;;;;;;;41.03;24.67;;;;;;;9.50;53.75;93958.25;4244251;27;20047;-75
2024/02/09 00:19:41;;;;;;;45.72;24.38;;;;;;;9.61;53.25;93961.31;4235805;27;20559;-73
2024/02/09 00:21:42;;;;;;;41.88;25.48;;;;;;;9.71;53.17;93955.03;4244216;27;20057;-72
2024/02/09 00:23:44;;;;;;;43.95;25.45;;;;;;;9.76;52.88;93958.75;4238650;27;20104;-74
2024/02/09 00:25:49;;;;;;;48.08;23.70;;;;;;;9.70;52.23;93956.00;4242388;27;20150;-74
2024/02/09 00:27:51;;;;;;;42.75;24.35;;;;;;;9.75;52.62;93957.13;4242925;27;20097;-73
2024/02/09 00:29:53;;;;;;;38.25;23.65;;;;;;;9.78;52.65;93963.81;4244589;27;20071;-75
2024/02/09 00:31:55;;;;;;;42.08;23.90;;;;;;;9.76;52.73;93953.50;4237315;27;20040;-74
2024/02/09 00:33:57;;;;;;;40.55;23.35;;;;;;;9.76;52.96;93953.50;4236652;27;20131;-74
2024/02/09 00:35:59;;;;;;;41.33;24.60;;;;;;;9.73;53.09;93959.09;4241192;27;20171;-74
2024/02/09 00:38:03;;;;;;;41.15;24.10;;;;;;;9.72;52.35;93954.88;4241946;27;20120;-72
2024/02/09 00:40:06;;;;;;;43.25;23.55;;;;;;;9.68;53.06;93956.19;4237379;27;20039;-74
2024/02/09 00:42:12;;;;;;;43.70;24.05;;;;;;;9.62;53.14;93954.25;4225676;27;20463;-73
2024/02/09 00:44:14;;;;;;;39.70;22.38;;;;;;;9.63;53.04;93948.84;4239960;27;20039;-73
2024/02/09 00:46:15;;;;;;;42.13;21.90;;;;;;;9.69;53.37;93951.78;4237434;27;20052;-72
2024/02/09 00:48:18;;;;;;;39.15;21.00;;;;;;;9.69;52.99;93949.97;4236715;27;20058;-72
2024/02/09 00:50:21;;;;;;;45.92;21.40;;;;;;;9.68;52.74;93948.34;4233247;27;20566;-72
2024/02/09 00:52:22;;;;;;;43.78;21.10;;;;;;;9.67;53.24;93951.13;4222425;28;20051;-71
2024/02/09 00:54:24;;;;;;;36.53;20.67;;;;;;;9.60;52.99;93941.34;4217892;28;20466;-75
2024/02/09 00:56:27;;;;;;;44.90;22.88;;;;;;;9.60;52.91;93953.63;4240638;27;20054;-74
2024/02/09 00:58:29;;;;;;;38.47;22.60;;;;;;;9.45;53.46;93943.06;4242730;27;20487;-75
2024/02/09 01:00:31;;;;;;;37.30;21.95;;;;;;;9.35;54.26;93950.28;4235466;27;20695;-73
2024/02/09 01:02:33;;;;;;;46.10;21.42;;;;;;;9.36;53.75;93946.72;4239264;27;20508;-74
2024/02/09 01:04:36;;;;;;;41.75;21.77;;;;;;;9.21;53.93;93944.78;4237149;27;20042;-74
2024/02/09 01:06:39;;;;;;;37.00;22.33;;;;;;;9.11;54.48;93954.63;4241167;27;20049;-74
2024/02/09 01:08:42;;;;;;;46.13;22.77;;;;;;;8.99;54.60;93951.56;4243543;27;20070;-74
2024/02/09 01:10:44;;;;;;;44.13;22.67;;;;;;;9.05;54.40;93955.28;4239814;27;20058;-73
2024/02/09 02:46:24;;;;;;;33.85;17.85;;;;;;;7.92;58.19;93949.97;4243652;27;20071;-72
2024/02/09 03:04:50;;;;;;;32.35;17.75;;;;;;;8.10;57.44;93968.91;4242972;27;20181;-73
2024/02/09 03:06:52;;;;;;;31.00;18.55;;;;;;;8.09;57.90;93963.88;4227085;28;20077;-72
2024/02/09 03:09:14;;;;;;;26.02;16.88;;;;;;;8.03;57.83;93973.13;4232118;27;20415;-73
2024/02/09 03:11:17;;;;;;;26.80;16.77;;;;;;;7.94;58.04;93980.13;4241414;27;20051;-70
2024/02/09 03:13:21;;;;;;;26.15;16.83;;;;;;;7.93;57.84;93978.50;4242836;27;20051;-72
2024/02/09 03:15:23;;;;;;;28.45;17.20;;;;;;;7.82;57.82;93968.38;4244072;27;20137;-72
2024/02/09 03:17:26;;;;;;;24.92;16.80;;;;;;;7.83;58.32;93979.59;4240536;27;20042;-72
2024/02/09 03:19:28;;;;;;;30.73;18.08;;;;;;;7.91;58.40;93985.66;4240479;27;20546;-72
2024/02/09 03:21:35;;;;;;;33.00;18.00;;;;;;;7.89;57.50;93990.22;4241697;27;20151;-72
2024/02/09 03:23:37;;;;;;;27.35;17.67;;;;;;;7.88;58.19;93991.22;4243039;27;20540;-72
2024/02/09 03:25:39;;;;;;;30.80;18.45;;;;;;;7.82;58.51;93993.63;4238518;27;20047;-74
2024/02/09 03:27:41;;;;;;;26.15;17.05;;;;;;;7.86;58.01;93984.53;4242551;27;20035;-72
2024/02/09 03:29:43;;;;;;;31.05;18.52;;;;;;;7.77;58.33;93984.50;4233399;27;20047;-73
2024/02/09 03:31:45;;;;;;;27.92;17.65;;;;;;;7.68;58.63;93990.69;4239118;27;20355;-74
2024/02/09 03:33:47;;;;;;;28.30;17.13;;;;;;;7.77;58.59;93992.31;4243967;27;20044;-74
2024/02/09 03:35:49;;;;;;;30.10;17.85;;;;;;;7.77;58.39;93994.13;4243496;27;20055;-74
2024/02/09 03:37:50;;;;;;;29.48;18.10;;;;;;;7.80;58.18;93986.78;4225257;28;20138;-72
2024/02/09 03:39:53;;;;;;;23.20;16.45;;;;;;;7.72;58.05;93984.16;4241308;27;20067;-74
2024/02/09 03:41:55;;;;;;;25.35;16.48;;;;;;;7.59;58.63;93986.38;4244379;27;20050;-71
2024/02/09 03:44:03;;;;;;;25.65;16.40;;;;;;;7.67;58.79;93993.44;4242865;27;20054;-72
2024/02/09 03:46:06;;;;;;;23.08;15.57;;;;;;;7.50;58.21;93997.78;4238661;27;20050;-75
2024/02/09 03:48:08;;;;;;;25.55;16.40;;;;;;;7.44;59.36;93995.78;4237428;27;20048;-74
2024/02/09 03:50:11;;;;;;;26.75;15.73;;;;;;;7.49;59.19;93998.75;4242575;27;20092;-73
2024/02/09 03:52:13;;;;;;;26.30;16.30;;;;;;;7.47;59.18;93992.88;4242418;27;20491;-72
2024/02/09 03:54:15;;;;;;;25.30;15.82;;;;;;;7.44;59.34;93999.19;4243065;27;20467;-75
2024/02/09 03:56:16;;;;;;;27.98;16.40;;;;;;;7.43;59.30;93992.38;4244062;27;20122;-75
2024/02/09 03:58:20;;;;;;;33.05;18.08;;;;;;;7.47;59.39;94006.72;4238274;27;20126;-74
2024/02/09 04:00:22;;;;;;;38.60;20.83;;;;;;;7.47;59.40;94001.50;4239842;27;20051;-72
2024/02/09 04:02:23;;;;;;;29.80;16.60;;;;;;;7.38;59.75;94003.28;4219314;28;20467;-73
2024/02/09 04:04:28;;;;;;;41.50;19.85;;;;;;;7.22;59.70;94013.59;4242927;27;20080;-74
2024/02/09 04:06:30;;;;;;;34.17;19.05;;;;;;;7.14;60.53;94006.59;4236931;27;20065;-73
2024/02/09 04:08:32;;;;;;;34.05;17.23;;;;;;;7.26;60.49;94011.50;4242882;27;20047;-74
2024/02/09 04:10:37;;;;;;;39.20;19.58;;;;;;;7.38;59.88;94013.69;4242291;27;20101;-72
2024/02/09 04:12:45;;;;;;;29.95;17.77;;;;;;;7.47;59.90;94018.94;4226832;27;20071;-73
2024/02/09 04:14:47;;;;;;;29.92;16.60;;;;;;;7.49;59.34;94027.44;4243751;27;20050;-72
2024/02/09 04:16:49;;;;;;;37.35;23.08;;;;;;;7.49;59.28;94030.03;4242713;27;20050;-73
2024/02/09 04:18:51;;;;;;;31.65;19.02;;;;;;;7.34;60.09;94033.22;4241171;27;20047;-74
2024/02/09 04:20:55;;;;;;;24.05;15.75;;;;;;;7.37;59.83;94030.28;4240384;27;20127;-74
2024/02/09 04:23:00;;;;;;;27.08;15.30;;;;;;;7.38;60.12;94034.53;4222660;27;20047;-76
2024/02/09 04:25:03;;;;;;;26.20;17.27;;;;;;;7.37;59.83;94038.09;4239842;27;20051;-73
2024/02/09 04:27:05;;;;;;;27.75;17.63;;;;;;;7.21;60.26;94038.03;4242088;27;20046;-72
2024/02/09 04:29:07;;;;;;;26.48;16.88;;;;;;;7.18;60.42;94038.31;4219305;28;20196;-74
2024/02/09 04:31:09;;;;;;;29.73;17.63;;;;;;;7.22;60.95;94050.06;4242000;27;20146;-74
2024/02/09 04:33:11;;;;;;;28.13;17.13;;;;;;;7.02;60.42;94049.47;4241472;27;20074;-74
2024/02/09 04:35:17;;;;;;;33.78;18.88;;;;;;;6.55;61.92;94057.59;4243684;27;20120;-74
2024/02/09 04:37:21;;;;;;;31.35;18.63;;;;;;;6.58;62.71;94057.28;4220763;28;20116;-72
2024/02/09 04:39:23;;;;;;;27.08;18.20;;;;;;;6.79;62.46;94054.38;4239135;27;20039;-72
2024/02/09 04:41:25;;;;;;;30.35;19.35;;;;;;;6.88;61.46;94056.06;4231124;27;20527;-73
2024/02/09 04:43:26;;;;;;;33.58;19.25;;;;;;;6.87;61.63;94061.44;4243606;27;20535;-72
2024/02/09 04:45:28;;;;;;;31.45;19.77;;;;;;;6.61;61.89;94061.41;4242669;27;20039;-73
2024/02/09 04:47:30;;;;;;;33.80;19.65;;;;;;;6.51;62.50;94058.88;4234828;27;20135;-73
2024/02/09 04:49:32;;;;;;;30.02;18.58;;;;;;;6.62;62.45;94065.63;4236620;27;20099;-71
2024/02/09 04:51:47;;;;;;;33.42;18.90;;;;;;;6.71;61.65;94062.09;4243824;27;20286;-73
2024/02/09 04:53:49;;;;;;;34.28;19.38;;;;;;;6.91;62.19;94060.97;4242741;27;20054;-75
2024/02/09 04:55:51;;;;;;;32.33;20.15;;;;;;;7.04;61.35;94059.75;4239236;27;20778;-73
2024/02/09 04:57:53;;;;;;;33.13;19.02;;;;;;;7.10;60.21;94062.56;4241719;27;20080;-73
2024/02/09 04:59:55;;;;;;;29.73;19.00;;;;;;;7.06;60.93;94061.22;4243381;27;20046;-74
2024/02/09 05:01:57;;;;;;;35.25;19.73;;;;;;;7.20;60.62;94056.41;4230022;27;20051;-73
2024/02/09 05:04:00;;;;;;;40.63;20.08;;;;;;;7.23;59.69;94063.91;4230957;27;20130;-75
2024/02/09 05:06:02;;;;;;;27.98;18.48;;;;;;;7.26;60.33;94059.22;4236544;27;20097;-76
2024/02/09 05:08:05;;;;;;;32.10;18.67;;;;;;;7.07;60.32;94052.44;4239017;27;20070;-74
2024/02/09 05:10:08;;;;;;;32.70;18.80;;;;;;;7.11;60.69;94060.75;4238670;27;20659;-73
2024/02/09 05:12:10;;;;;;;33.38;18.48;;;;;;;7.15;60.20;94065.50;4222967;28;20048;-74
2024/02/09 05:14:13;;;;;;;35.53;19.63;;;;;;;7.12;60.76;94062.38;4238318;27;20043;-74
2024/02/09 05:16:17;;;;;;;27.15;18.45;;;;;;;7.15;60.92;94070.72;4237634;27;20475;-74
2024/02/09 05:18:19;;;;;;;29.95;19.00;;;;;;;7.18;60.02;94065.22;4237399;27;20115;-74
2024/02/09 05:20:21;;;;;;;30.38;17.85;;;;;;;7.16;60.21;94061.94;4239182;27;20150;-74
2024/02/09 05:22:24;;;;;;;35.38;18.23;;;;;;;7.19;60.24;94066.03;4231169;27;20054;-72
2024/02/09 05:24:27;;;;;;;32.95;18.85;;;;;;;7.26;60.57;94055.81;4221571;28;20059;-73
2024/02/09 05:26:30;;;;;;;29.25;17.63;;;;;;;7.15;60.30;94049.06;4239676;27;20063;-74
2024/02/09 05:28:36;;;;;;;36.60;17.60;;;;;;;7.24;59.88;94050.75;4222146;27;20091;-74
2024/02/09 05:30:39;;;;;;;29.88;17.45;;;;;;;7.31;59.38;94046.56;4239589;27;20035;-75
2024/02/09 05:32:41;;;;;;;30.92;18.38;;;;;;;7.34;59.83;94033.22;4240477;27;20058;-77
2024/02/09 05:34:44;;;;;;;35.55;17.77;;;;;;;7.39;59.39;94028.34;4241285;27;20131;-74
2024/02/09 05:36:46;;;;;;;27.08;17.67;;;;;;;7.42;59.08;94027.25;4210756;28;20127;-73
2024/02/09 05:38:49;;;;;;;30.20;17.67;;;;;;;7.51;59.10;94017.66;4235701;27;20047;-72
2024/02/09 05:40:51;;;;;;;33.05;17.17;;;;;;;7.52;58.80;94025.31;4241849;27;20051;-74
2024/02/09 05:42:53;;;;;;;28.67;17.70;;;;;;;7.45;58.78;94019.09;4242433;27;20111;-74
2024/02/09 05:44:55;;;;;;;29.00;18.25;;;;;;;7.46;59.45;94017.31;4224228;28;20415;-71
2024/02/09 05:47:00;;;;;;;31.25;18.00;;;;;;;7.53;59.07;94015.72;4226215;27;20527;-74
2024/02/09 05:49:06;;;;;;;30.10;17.37;;;;;;;7.61;58.87;94015.72;4224069;28;20423;-74
2024/02/09 05:51:12;;;;;;;28.73;17.88;;;;;;;7.44;58.96;94016.63;4242411;27;20730;-73
2024/02/09 05:53:14;;;;;;;34.05;18.27;;;;;;;7.32;59.74;94024.75;4240869;28;20448;-73
2024/02/09 05:55:17;;;;;;;26.15;16.67;;;;;;;7.15;60.04;94013.41;4224445;28;20075;-76
2024/02/09 05:57:20;;;;;;;30.73;17.17;;;;;;;6.92;60.63;94020.13;4233982;28;20051;-75
2024/02/09 05:59:22;;;;;;;28.73;16.67;;;;;;;6.96;61.24;94022.25;4238364;28;20051;-74
2024/02/09 06:01:32;;;;;;;25.55;16.08;;;;;;;7.12;60.33;94024.16;4240253;28;20286;-75
2024/02/09 06:03:34;;;;;;;32.17;18.80;;;;;;;7.20;59.99;94031.19;4221427;28;20139;-74
2024/02/09 06:05:41;;;;;;;32.28;18.27;;;;;;;7.08;59.97;94022.00;4234337;28;20050;-73
2024/02/09 06:07:43;;;;;;;31.35;17.75;;;;;;;7.04;60.48;94015.47;4238744;28;20050;-74
2024/02/09 06:09:44;;;;;;;32.85;17.00;;;;;;;6.95;60.14;94014.63;4237165;28;20046;-74
2024/02/09 06:11:46;;;;;;;29.38;17.83;;;;;;;7.00;60.66;94020.16;4241593;28;20204;-76
2024/02/09 06:13:48;;;;;;;33.53;18.30;;;;;;;7.12;60.32;94029.38;4241487;28;20043;-74
2024/02/09 06:15:51;;;;;;;37.40;20.15;;;;;;;7.15;60.28;94028.22;4240089;28;20099;-75
2024/02/09 06:17:52;;;;;;;29.38;18.75;;;;;;;7.16;59.89;94029.84;4240288;28;20493;-75
2024/02/09 06:19:55;;;;;;;35.17;20.25;;;;;;;6.79;61.25;94043.94;4238733;28;20489;-75
2024/02/09 06:21:57;;;;;;;31.90;19.38;;;;;;;6.79;61.75;94037.94;4240041;28;20051;-75
2024/02/09 06:23:59;;;;;;;44.65;20.92;;;;;;;6.85;61.57;94038.13;4237095;28;20040;-75
2024/02/09 06:26:02;;;;;;;33.25;20.77;;;;;;;7.07;61.43;94049.00;4240990;28;20143;-75
2024/02/09 06:28:04;;;;;;;33.70;20.00;;;;;;;7.24;60.52;94042.94;4199795;28;20159;-75
2024/02/09 06:30:06;;;;;;;33.25;20.02;;;;;;;7.36;59.48;94038.28;4238631;28;20331;-76
2024/02/09 06:32:08;;;;;;;36.08;20.67;;;;;;;7.41;62.22;94040.41;4237640;28;20040;-77
2024/02/09 06:34:10;;;;;;;33.35;19.67;;;;;;;7.52;59.98;94050.56;4217581;28;20043;-74
2024/02/09 06:36:14;;;;;;;33.13;19.67;;;;;;;7.52;59.09;94053.16;4238539;28;20049;-75
2024/02/09 06:38:18;;;;;;;34.50;21.08;;;;;;;7.58;59.33;94055.16;4237557;28;20120;-73
2024/02/09 06:40:20;;;;;;;31.63;19.70;;;;;;;7.63;58.78;94062.50;4238615;28;20047;-76
2024/02/09 06:42:22;;;;;;;38.40;20.92;;;;;;;7.80;58.82;94053.75;4217085;28;20139;-74
2024/02/09 06:44:24;;;;;;;32.67;20.40;;;;;;;7.96;57.82;94050.41;4241563;28;20059;-72
2024/02/09 06:46:27;;;;;;;78.28;40.83;;;;;;;8.10;58.60;94055.00;4237988;28;20123;-75
2024/02/09 06:48:30;;;;;;;265.95;103.28;;;;;;;8.28;58.57;94059.25;4236442;28;20130;-74
2024/02/09 06:50:35;;;;;;;823.83;377.33;;;;;;;8.39;59.13;94048.53;4243137;28;20299;-74
2024/02/09 06:52:40;;;;;;;1182.80;576.47;;;;;;;8.47;58.16;94059.00;4238552;28;20126;-76
2024/02/09 06:54:42;;;;;;;1269.82;552.30;;;;;;;8.54;57.41;94057.38;4220281;28;20039;-74
2024/02/09 06:56:44;;;;;;;261.05;103.90;;;;;;;8.54;56.14;94057.38;4235838;27;20481;-75
2024/02/09 06:58:46;;;;;;;491.35;241.38;;;;;;;8.45;56.35;94067.97;4244933;27;20434;-73
2024/02/09 07:00:52;;;;;;;52.58;28.92;;;;;;;8.27;57.25;94075.91;4242205;27;20377;-71
2024/02/09 07:02:55;;;;;;;47.42;27.08;;;;;;;7.89;58.11;94065.84;4245511;27;20107;-73
2024/02/09 07:05:00;;;;;;;66.07;31.53;;;;;;;7.56;58.61;94073.53;4245009;27;20057;-76
2024/02/09 07:07:07;;;;;;;63.40;37.88;;;;;;;7.34;59.07;94084.53;4244358;27;20100;-74
2024/02/09 07:09:13;;;;;;;55.80;38.05;;;;;;;7.20;59.56;94085.06;4239664;27;20130;-75
2024/02/09 07:11:15;;;;;;;75.82;49.47;;;;;;;7.13;59.79;94088.28;4244557;27;20043;-73
2024/02/09 07:13:17;;;;;;;80.57;46.08;;;;;;;6.83;61.21;94092.16;4242622;27;20073;-79
2024/02/09 07:15:20;;;;;;;72.30;44.22;;;;;;;6.55;61.25;94089.63;4242957;27;20382;-71
2024/02/09 07:17:25;;;;;;;70.07;46.58;;;;;;;6.74;60.82;94090.44;4212750;28;20048;-75
2024/02/09 07:19:27;;;;;;;77.25;42.60;;;;;;;7.02;60.54;94087.72;4244346;27;20134;-71
2024/02/09 07:21:30;;;;;;;64.32;38.30;;;;;;;7.29;60.25;94082.38;4242574;27;20047;-71
2024/02/09 07:23:32;;;;;;;58.30;36.72;;;;;;;7.39;59.40;94080.47;4239908;27;20057;-74
2024/02/09 07:25:34;;;;;;;58.85;31.30;;;;;;;7.64;59.01;94077.19;4243889;27;20055;-72
2024/02/09 07:27:36;;;;;;;52.30;28.90;;;;;;;7.86;57.90;94067.97;4241490;27;20055;-74
2024/02/09 07:29:37;;;;;;;47.33;30.83;;;;;;;8.02;57.69;94070.59;4244590;27;20047;-74
2024/02/09 07:31:39;;;;;;;52.95;28.65;;;;;;;8.11;57.66;94067.06;4224979;27;20521;-77
2024/02/09 07:33:41;;;;;;;46.35;27.17;;;;;;;8.15;57.71;94065.78;4225712;28;20051;-73
2024/02/09 07:35:43;;;;;;;40.20;26.48;;;;;;;8.37;57.19;94066.16;4244829;27;20047;-73
2024/02/09 07:37:45;;;;;;;38.47;25.27;;;;;;;8.42;56.32;94063.06;4226665;28;20138;-73
2024/02/09 07:39:47;;;;;;;41.42;24.83;;;;;;;8.35;56.34;94065.50;4224728;28;20051;-74
2024/02/09 07:41:49;;;;;;;46.40;25.33;;;;;;;8.40;56.48;94061.44;4239429;27;20419;-72
2024/02/09 07:43:51;;;;;;;47.13;26.13;;;;;;;8.49;56.66;94062.25;4239111;27;20057;-71
2024/02/09 07:45:53;;;;;;;50.58;24.40;;;;;;;8.59;56.88;94057.69;4242803;27;20078;-72
2024/02/09 07:47:55;;;;;;;40.92;23.65;;;;;;;8.65;55.84;94060.63;4243476;27;20046;-74
2024/02/09 07:49:57;;;;;;;43.88;23.90;;;;;;;8.48;56.46;94057.22;4238647;27;20126;-72
2024/02/09 07:52:03;;;;;;;47.40;23.48;;;;;;;8.63;56.42;94060.00;4229401;27;20090;-70
2024/02/09 07:54:05;;;;;;;40.00;23.73;;;;;;;8.59;56.13;94068.16;4241904;27;20093;-75
2024/02/09 07:56:07;;;;;;;34.92;22.30;;;;;;;8.81;56.47;94068.47;4215447;28;20043;-73
2024/02/09 07:58:10;;;;;;;40.20;21.88;;;;;;;9.06;54.64;94061.44;4233860;27;20749;-73
2024/02/09 08:00:17;;;;;;;37.63;21.60;;;;;;;9.25;54.59;94064.66;4241640;27;20131;-73
2024/02/09 08:02:19;;;;;;;41.33;21.70;;;;;;;9.58;53.30;94052.34;4234642;27;20052;-72
2024/02/09 08:04:21;;;;;;;40.97;22.60;;;;;;;9.65;52.28;94034.97;4226053;27;20127;-73
2024/02/09 08:06:23;;;;;;;41.40;22.98;;;;;;;9.71;52.98;94036.91;4244794;27;20058;-75
2024/02/09 08:08:25;;;;;;;34.17;21.20;;;;;;;9.59;53.30;94031.25;4243542;27;20046;-75
2024/02/09 08:10:27;;;;;;;36.97;21.23;;;;;;;9.71;52.42;94026.47;4244269;27;20070;-76
2024/02/09 08:12:31;;;;;;;51.15;22.73;;;;;;;9.87;53.00;94035.22;4236824;27;20128;-74
2024/02/09 08:14:36;;;;;;;32.35;20.90;;;;;;;9.95;52.48;94037.78;4239347;27;20116;-74
2024/02/09 08:16:39;;;;;;;40.10;22.52;;;;;;;10.01;52.62;94026.66;4243078;27;20047;-73
2024/02/09 08:18:41;;;;;;;34.05;18.80;;;;;;;10.17;51.70;94028.34;4233435;27;20363;-75
2024/02/09 08:20:42;;;;;;;33.72;20.23;;;;;;;10.31;51.50;94029.44;4242740;27;20500;-78
2024/02/09 08:22:44;;;;;;;35.47;19.55;;;;;;;10.34;51.34;94027.28;4242525;27;20043;-76
2024/02/09 08:24:46;;;;;;;34.22;20.08;;;;;;;10.45;52.11;94018.22;4222364;28;20060;-74
2024/02/09 08:26:48;;;;;;;36.83;19.00;;;;;;;10.56;50.90;94028.28;4229538;27;20112;-76
2024/02/09 08:28:55;;;;;;;35.13;19.02;;;;;;;10.71;51.09;94030.13;4236931;27;20094;-75
2024/02/09 08:30:57;;;;;;;35.70;18.80;;;;;;;10.92;49.64;94016.38;4244303;27;20095;-75
2024/02/09 08:33:00;;;;;;;29.70;17.45;;;;;;;11.03;50.11;94015.94;4241561;27;20464;-74
2024/02/09 08:35:03;;;;;;;34.20;17.80;;;;;;;11.09;49.80;94017.84;4232401;27;20051;-77
2024/02/09 08:37:05;;;;;;;30.15;15.75;;;;;;;11.22;49.31;94009.34;4237327;27;20040;-76
2024/02/09 08:39:07;;;;;;;31.80;16.15;;;;;;;11.08;49.50;94008.38;4226499;27;20078;-77
2024/02/09 08:41:09;;;;;;;27.20;14.52;;;;;;;10.94;49.68;94003.91;4241648;27;20076;-75
2024/02/09 08:43:11;;;;;;;24.52;14.80;;;;;;;10.97;49.48;94000.91;4238775;27;20753;-74
2024/02/09 08:45:13;;;;;;;29.70;14.60;;;;;;;11.15;49.54;94014.50;4230971;27;20059;-74
2024/02/09 08:47:15;;;;;;;33.95;14.23;;;;;;;11.15;49.32;94009.28;4244039;27;20119;-75
2024/02/09 08:49:17;;;;;;;30.67;15.18;;;;;;;11.27;49.10;94007.00;4242178;27;20047;-74
2024/02/09 08:51:19;;;;;;;30.77;13.73;;;;;;;11.34;48.89;94021.03;4229724;27;20047;-76
2024/02/09 08:53:21;;;;;;;31.15;15.13;;;;;;;11.61;48.27;94008.28;4218453;28;20120;-77
2024/02/09 08:55:23;;;;;;;29.23;14.88;;;;;;;11.57;47.74;94004.38;4242625;27;20055;-76
2024/02/09 08:57:25;;;;;;;33.08;14.27;;;;;;;11.67;48.06;94004.94;4244533;27;20086;-80
2024/02/09 08:59:26;;;;;;;25.83;13.55;;;;;;;11.50;48.22;94004.31;4224887;28;20057;-75
2024/02/09 09:01:28;;;;;;;30.85;13.73;;;;;;;11.62;48.47;94007.28;4241091;27;20054;-76
2024/02/09 09:03:30;;;;;;;25.17;13.43;;;;;;;11.95;47.77;93999.03;4231083;27;20643;-74
2024/02/09 09:05:32;;;;;;;26.58;13.68;;;;;;;11.52;47.70;94001.50;4237322;27;20055;-77
2024/02/09 09:07:36;;;;;;;25.70;14.57;;;;;;;11.59;48.32;94003.19;4243445;27;20093;-74
2024/02/09 09:09:38;;;;;;;25.42;12.75;;;;;;;11.47;47.73;94002.06;4224892;28;20475;-77
2024/02/09 09:11:40;;;;;;;23.80;12.20;;;;;;;11.74;47.77;93994.50;4234533;27;20104;-78
2024/02/09 09:13:42;;;;;;;24.58;13.27;;;;;;;12.04;48.16;93990.03;4235996;27;20076;-78
2024/02/09 09:15:44;;;;;;;25.77;12.80;;;;;;;12.33;47.04;93993.59;4232342;27;20093;-77
2024/02/09 09:17:49;;;;;;;31.02;13.20;;;;;;;12.60;46.44;94000.69;4242249;27;20076;-76
2024/02/09 09:19:51;;;;;;;30.08;12.95;;;;;;;12.72;45.91;93997.59;4221945;28;20123;-77
2024/02/09 09:21:53;;;;;;;23.42;12.02;;;;;;;12.78;45.34;93991.59;4237039;27;20124;-77
2024/02/09 09:23:55;;;;;;;31.25;13.52;;;;;;;12.52;45.48;93984.25;4238521;27;20131;-75
2024/02/09 09:25:57;;;;;;;23.77;12.43;;;;;;;12.51;45.86;93993.97;4231993;27;20139;-76
2024/02/09 09:28:04;;;;;;;23.05;10.90;;;;;;;12.74;45.11;93979.81;4236785;27;20039;-78
2024/02/09 09:30:06;;;;;;;30.85;12.00;;;;;;;12.88;44.94;93986.78;4242685;27;20082;-77
2024/02/09 09:32:08;;;;;;;19.73;11.23;;;;;;;13.05;44.42;93985.50;4240757;27;20471;-78
2024/02/09 09:34:11;;;;;;;22.73;11.48;;;;;;;13.02;44.24;93985.88;4223121;28;20543;-75
2024/02/09 09:36:13;;;;;;;25.77;10.38;;;;;;;12.90;45.03;93985.59;4232583;27;20048;-76
2024/02/09 09:38:15;;;;;;;21.67;10.27;;;;;;;12.94;44.52;93979.97;4238147;27;20044;-73
2024/02/09 09:40:19;;;;;;;23.83;11.07;;;;;;;13.05;44.35;93976.81;4242391;27;20408;-77
2024/02/09 09:42:23;;;;;;;16.92;10.13;;;;;;;13.26;44.30;93984.63;4235796;27;20122;-71
2024/02/09 09:44:28;;;;;;;23.75;10.10;;;;;;;13.35;43.72;93969.53;4235815;27;20142;-72
2024/02/09 09:46:31;;;;;;;24.40;9.60;;;;;;;13.29;43.42;93963.25;4218322;28;20104;-75
2024/02/09 09:48:37;;;;;;;20.70;10.05;;;;;;;13.39;43.20;93962.09;4236773;27;20119;-75
2024/02/09 09:50:40;;;;;;;22.13;10.30;;;;;;;13.67;42.78;93964.66;4231694;28;20047;-76
2024/02/09 09:52:50;;;;;;;20.08;11.05;;;;;;;13.47;42.81;93965.38;4236686;28;20483;-74
2024/02/09 09:54:54;;;;;;;26.15;12.52;;;;;;;13.15;43.72;93960.69;4241269;28;20124;-76
2024/02/09 09:56:59;;;;;;;28.73;12.15;;;;;;;13.18;44.33;93958.47;4241626;28;20111;-79
2024/02/09 09:59:03;;;;;;;27.08;12.50;;;;;;;13.42;43.88;93949.34;4238257;28;20039;-75
2024/02/09 10:01:07;;;;;;;22.45;12.50;;;;;;;13.73;43.14;93942.81;4231974;28;20609;-75
2024/02/09 10:03:13;;;;;;;37.95;13.48;;;;;;;13.88;42.56;93940.03;4237023;28;20596;-77
2024/02/09 10:05:16;;;;;;;21.08;10.55;;;;;;;14.06;42.33;93934.19;4239605;28;20048;-77
2024/02/09 10:07:19;;;;;;;19.13;11.43;;;;;;;14.23;41.82;93935.44;4238463;28;20165;-74
2024/02/09 10:09:21;;;;;;;21.77;11.20;;;;;;;14.36;41.76;93931.22;4220373;28;20093;-76
2024/02/09 10:11:24;;;;;;;27.13;11.13;;;;;;;14.49;41.19;93933.84;4237024;28;20047;-78
2024/02/09 10:13:26;;;;;;;24.58;11.05;;;;;;;14.56;41.50;93925.97;4232857;28;20051;-76
2024/02/09 10:15:29;;;;;;;19.85;9.48;;;;;;;14.65;40.97;93922.16;4206679;28;20060;-77
2024/02/09 10:17:31;;;;;;;16.95;11.05;;;;;;;14.60;40.74;93921.94;4222615;28;20086;-77
2024/02/09 10:19:34;;;;;;;19.52;9.77;;;;;;;14.54;40.90;93919.06;4223751;28;20563;-74
2024/02/09 10:21:36;;;;;;;20.85;10.63;;;;;;;14.77;41.00;93912.59;4238361;28;20043;-73
2024/02/09 10:23:47;;;;;;;28.23;15.45;;;;;;;14.85;40.99;93909.75;4222977;28;20055;-78
2024/02/09 10:25:49;;;;;;;24.17;12.55;;;;;;;14.96;40.45;93905.69;4242491;28;20126;-75
2024/02/09 10:27:51;;;;;;;22.27;10.30;;;;;;;14.89;40.28;93900.41;4241431;28;20048;-74
2024/02/09 10:29:54;;;;;;;21.88;10.90;;;;;;;14.60;40.89;93893.75;4241571;27;20384;-76
2024/02/09 10:31:56;;;;;;;19.75;10.25;;;;;;;14.44;41.27;93894.94;4226663;28;20044;-79
2024/02/09 10:33:58;;;;;;;20.17;12.07;;;;;;;14.36;41.01;93894.31;4229044;27;20127;-75
2024/02/09 10:36:00;;;;;;;20.92;10.95;;;;;;;14.28;41.32;93882.16;4241877;27;20049;-76
2024/02/09 10:38:02;;;;;;;26.15;11.63;;;;;;;14.15;41.62;93875.03;4237527;27;20470;-75
2024/02/09 10:40:06;;;;;;;18.90;10.55;;;;;;;13.89;41.80;93874.00;4238822;27;20039;-74
2024/02/09 10:42:08;;;;;;;21.83;10.02;;;;;;;13.92;42.28;93878.88;4244700;27;20054;-78
2024/02/09 10:44:11;;;;;;;29.15;12.80;;;;;;;13.99;42.56;93876.25;4238579;27;20047;-73
2024/02/09 10:46:16;;;;;;;23.27;10.70;;;;;;;14.07;41.90;93865.53;4241877;27;20047;-74
2024/02/09 10:48:24;;;;;;;22.23;9.63;;;;;;;14.14;42.07;93844.47;4225714;27;20542;-74
2024/02/09 10:50:29;;;;;;;23.85;10.68;;;;;;;14.14;41.71;93844.47;4244839;27;20047;-76
2024/02/09 10:52:36;;;;;;;19.25;9.70;;;;;;;14.15;41.81;93840.81;4221377;27;20061;-76
2024/02/09 10:54:45;;;;;;;24.13;10.07;;;;;;;14.11;42.08;93826.41;4221017;28;20302;-76
2024/02/09 10:56:50;;;;;;;17.08;8.30;;;;;;;14.18;41.81;93823.81;4228836;28;20516;-76
2024/02/09 10:58:58;;;;;;;22.33;9.57;;;;;;;14.26;41.62;93816.50;4223574;27;20039;-77
2024/02/09 11:01:04;;;;;;;23.45;8.90;;;;;;;14.24;41.84;93818.53;4229368;28;20075;-75
2024/02/09 11:03:07;;;;;;;15.93;7.72;;;;;;;14.20;41.40;93817.31;4228233;27;20411;-78
2024/02/09 11:05:16;;;;;;;12.93;7.78;;;;;;;14.22;41.66;93804.75;4240876;27;20180;-74
2024/02/09 11:07:19;;;;;;;18.70;8.38;;;;;;;14.25;41.62;93809.59;4237955;27;20079;-76
2024/02/09 11:09:21;;;;;;;18.00;7.25;;;;;;;14.43;41.66;93805.53;4235791;27;20058;-72
2024/02/09 11:11:32;;;;;;;29.38;8.73;;;;;;;14.56;41.50;93802.09;4244104;27;20051;-73
2024/02/09 11:13:34;;;;;;;11.30;6.78;;;;;;;14.57;40.52;93790.56;4239005;27;20082;-75
2024/02/09 11:15:38;;;;;;;19.40;8.50;;;;;;;14.36;40.63;93788.94;4245676;27;20062;-78
2024/02/09 11:17:47;;;;;;;17.48;7.40;;;;;;;14.37;41.00;93799.28;4237611;27;20135;-77
2024/02/09 11:19:51;;;;;;;17.98;7.40;;;;;;;14.42;41.03;93790.75;4238275;27;20070;-75